createdAt,value
2022-12-14T00:01:29.098Z,-3.84
2022-12-14T00:03:56.329Z,-3.82
2022-12-14T00:06:26.664Z,-3.86
2022-12-14T00:08:56.522Z,-3.92
2022-12-14T00:11:23.520Z,-3.90
2022-12-14T00:13:57.338Z,-3.90
2022-12-14T00:16:25.733Z,-3.97
2022-12-14T00:18:53.742Z,-3.96
2022-12-14T00:21:24.153Z,-3.99
2022-12-14T00:23:51.743Z,-3.95
2022-12-14T00:26:24.688Z,-3.95
2022-12-14T00:28:53.202Z,-3.92
2022-12-14T00:31:20.733Z,-3.93
2022-12-14T00:33:47.140Z,-3.98
2022-12-14T00:36:16.794Z,-3.96
2022-12-14T00:38:43.249Z,-3.94
2022-12-14T00:41:10.879Z,-3.96
2022-12-14T00:43:38.014Z,-3.92
2022-12-14T00:46:04.692Z,-3.98
2022-12-14T00:48:31.927Z,-3.89
2022-12-14T00:50:58.662Z,-3.91
2022-12-14T00:53:25.809Z,-3.90
2022-12-14T00:55:52.610Z,-3.95
2022-12-14T00:58:21.690Z,-3.97
2022-12-14T01:00:57.705Z,-3.98
2022-12-14T01:03:24.299Z,-4.05
2022-12-14T01:05:51.013Z,-4.11
2022-12-14T01:08:17.415Z,-4.11
2022-12-14T01:10:43.834Z,-4.15
2022-12-14T01:13:14.117Z,-4.22
2022-12-14T01:15:40.609Z,-4.26
2022-12-14T01:18:07.029Z,-4.29
2022-12-14T01:20:33.438Z,-4.29
2022-12-14T01:22:59.830Z,-4.30
2022-12-14T01:25:26.444Z,-4.42
2022-12-14T01:27:52.833Z,-4.37
2022-12-14T01:30:19.559Z,-4.31
2022-12-14T01:32:46.746Z,-4.32
2022-12-14T01:35:13.228Z,-4.34
2022-12-14T01:37:39.609Z,-4.33
2022-12-14T01:40:06.466Z,-4.36
2022-12-14T01:42:35.896Z,-4.33
2022-12-14T01:45:03.198Z,-4.40
2022-12-14T01:47:43.216Z,-4.41
2022-12-14T01:50:53.998Z,-4.41
2022-12-14T01:53:24.517Z,-4.46
2022-12-14T01:55:54.365Z,-4.38
2022-12-14T01:58:26.066Z,-4.36
2022-12-14T02:00:54.996Z,-4.36
2022-12-14T02:03:37.955Z,-4.41
2022-12-14T02:06:09.870Z,-4.34
2022-12-14T02:08:41.815Z,-4.33
2022-12-14T02:11:08.217Z,-4.41
2022-12-14T02:13:38.961Z,-4.46
2022-12-14T02:16:05.730Z,-4.45
2022-12-14T02:18:33.002Z,-4.44
2022-12-14T02:21:17.985Z,-4.52
2022-12-14T02:24:30.236Z,-4.48
2022-12-14T02:27:30.632Z,-4.63
2022-12-14T02:30:06.624Z,-4.56
2022-12-14T02:32:48.087Z,-4.55
2022-12-14T02:35:43.755Z,-4.56
2022-12-14T02:38:22.235Z,-4.52
2022-12-14T02:41:06.659Z,-4.54
2022-12-14T02:43:50.828Z,-4.50
2022-12-14T02:46:36.291Z,-4.45
2022-12-14T02:49:34.643Z,-4.47
2022-12-14T02:52:10.362Z,-4.50
2022-12-14T02:55:02.980Z,-4.55
2022-12-14T02:57:34.472Z,-4.51
2022-12-14T03:00:04.043Z,-4.56
2022-12-14T03:02:33.475Z,-4.66
2022-12-14T03:04:59.952Z,-4.60
2022-12-14T03:07:40.299Z,-4.66
2022-12-14T03:10:21.218Z,-4.60
2022-12-14T03:12:53.845Z,-4.52
2022-12-14T03:15:21.773Z,-4.49
2022-12-14T03:17:52.785Z,-4.44
2022-12-14T03:20:25.610Z,-4.67
2022-12-14T03:23:00.717Z,-4.70
2022-12-14T03:25:34.588Z,-4.67
2022-12-14T03:28:12.327Z,-4.72
2022-12-14T03:30:59.966Z,-4.69
2022-12-14T03:33:29.520Z,-4.67
2022-12-14T03:36:08.986Z,-4.66
2022-12-14T03:38:44.204Z,-4.67
2022-12-14T03:41:28.664Z,-4.67
2022-12-14T03:44:15.905Z,-4.65
2022-12-14T03:46:57.742Z,-4.62
2022-12-14T03:49:50.895Z,-4.61
2022-12-14T03:52:23.107Z,-4.98
2022-12-14T03:55:05.524Z,-4.97
2022-12-14T03:57:55.450Z,-4.97
2022-12-14T04:00:24.736Z,-4.92
2022-12-14T04:03:31.112Z,-4.96
2022-12-14T04:06:07.371Z,-5.10
2022-12-14T04:08:57.289Z,-5.10
2022-12-14T04:11:46.548Z,-5.05
2022-12-14T04:14:39.958Z,-5.06
2022-12-14T04:17:35.817Z,-5.10
2022-12-14T04:20:10.706Z,-5.12
2022-12-14T04:22:47.113Z,-5.13
2022-12-14T04:25:38.007Z,-5.20
2022-12-14T04:28:31.110Z,-5.35
2022-12-14T04:31:03.074Z,-5.33
2022-12-14T04:33:47.353Z,-5.48
2022-12-14T04:36:39.990Z,-5.40
2022-12-14T04:39:11.571Z,-5.47
2022-12-14T04:41:42.778Z,-5.72
2022-12-14T04:44:22.495Z,-5.80
2022-12-14T04:46:50.730Z,-5.67
2022-12-14T04:49:23.614Z,-5.63
2022-12-14T04:52:05.227Z,-5.64
2022-12-14T04:54:37.481Z,-5.62
2022-12-14T04:57:19.323Z,-5.56
2022-12-14T04:59:47.311Z,-5.50
2022-12-14T05:02:34.115Z,-5.55
2022-12-14T05:05:07.915Z,-5.44
2022-12-14T05:07:49.214Z,-5.59
2022-12-14T05:10:51.966Z,-5.70
2022-12-14T05:13:26.271Z,-5.58
2022-12-14T05:15:55.821Z,-5.67
2022-12-14T05:18:23.034Z,-5.69
2022-12-14T05:20:50.088Z,-5.65
2022-12-14T05:23:17.202Z,-5.65
2022-12-14T05:25:43.663Z,-5.60
2022-12-14T05:28:11.219Z,-5.67
2022-12-14T05:30:37.756Z,-5.71
2022-12-14T05:33:04.552Z,-5.65
2022-12-14T05:35:31.045Z,-5.75
2022-12-14T05:37:57.445Z,-5.77
2022-12-14T05:40:23.832Z,-5.90
2022-12-14T05:42:55.447Z,-5.87
2022-12-14T05:45:22.329Z,-5.87
2022-12-14T05:47:48.782Z,-5.91
2022-12-14T05:50:15.182Z,-5.94
2022-12-14T05:52:41.573Z,-5.96
2022-12-14T05:55:08.433Z,-6.05
2022-12-14T05:57:34.817Z,-5.93
2022-12-14T06:00:01.198Z,-5.85
2022-12-14T06:02:30.821Z,-5.82
2022-12-14T06:04:57.298Z,-5.68
2022-12-14T06:07:27.689Z,-5.57
2022-12-14T06:09:54.733Z,-5.65
2022-12-14T06:12:21.180Z,-5.58
2022-12-14T06:14:47.618Z,-5.54
2022-12-14T06:17:14.021Z,-5.53
2022-12-14T06:19:40.405Z,-5.54
2022-12-14T06:22:06.825Z,-5.67
2022-12-14T06:24:33.211Z,-5.79
2022-12-14T06:26:59.602Z,-5.87
2022-12-14T06:29:26.197Z,-5.89
2022-12-14T06:31:52.652Z,-6.06
2022-12-14T06:34:22.204Z,-6.05
2022-12-14T06:36:51.317Z,-6.07
2022-12-14T06:39:17.698Z,-6.25
2022-12-14T06:41:51.774Z,-6.13
2022-12-14T06:44:27.457Z,-5.99
2022-12-14T06:46:54.124Z,-6.03
2022-12-14T06:49:20.569Z,-6.04
2022-12-14T06:51:47.004Z,-6.01
2022-12-14T06:54:15.044Z,-6.09
2022-12-14T06:56:42.845Z,-6.10
2022-12-14T06:59:09.679Z,-6.06
2022-12-14T07:01:37.415Z,-6.13
2022-12-14T07:04:04.908Z,-6.16
2022-12-14T07:06:39.802Z,-6.21
2022-12-14T07:09:10.898Z,-6.15
2022-12-14T07:11:37.301Z,-6.19
2022-12-14T07:14:06.134Z,-6.24
2022-12-14T07:16:34.234Z,-6.28
2022-12-14T07:19:00.929Z,-6.25
2022-12-14T07:21:27.447Z,-6.14
2022-12-14T07:23:53.929Z,-6.33
2022-12-14T07:26:26.453Z,-6.23
2022-12-14T07:28:53.761Z,-6.23
2022-12-14T07:31:26.724Z,-6.24
2022-12-14T07:33:58.677Z,-6.31
2022-12-14T07:36:30.289Z,-6.18
2022-12-14T07:38:56.993Z,-6.14
2022-12-14T07:41:26.326Z,-6.06
2022-12-14T07:43:54.761Z,-6.07
2022-12-14T07:46:24.105Z,-6.12
2022-12-14T07:48:55.309Z,-6.04
2022-12-14T07:51:30.084Z,-5.95
2022-12-14T07:53:56.816Z,-5.96
2022-12-14T07:56:25.397Z,-5.87
2022-12-14T07:58:56.930Z,-5.95
2022-12-14T08:01:33.330Z,-5.97
2022-12-14T08:04:05.202Z,-5.94
2022-12-14T08:06:32.291Z,-5.85
2022-12-14T08:08:59.002Z,-5.75
2022-12-14T08:11:25.696Z,-5.79
2022-12-14T08:13:56.691Z,-5.79
2022-12-14T08:16:23.787Z,-5.83
2022-12-14T08:18:52.496Z,-5.84
2022-12-14T08:21:21.500Z,-5.92
2022-12-14T08:23:48.885Z,-5.83
2022-12-14T08:26:15.881Z,-5.71
2022-12-14T08:28:42.270Z,-5.72
2022-12-14T08:31:20.342Z,-5.65
2022-12-14T08:33:47.609Z,-5.71
2022-12-14T08:36:25.457Z,-5.54
2022-12-14T08:38:57.034Z,-5.53
2022-12-14T08:41:24.564Z,-5.54
2022-12-14T08:43:56.699Z,-5.55
2022-12-14T08:46:24.191Z,-5.50
2022-12-14T08:48:52.448Z,-5.47
2022-12-14T08:51:19.707Z,-5.46
2022-12-14T08:53:52.002Z,-5.38
2022-12-14T08:56:21.566Z,-5.34
2022-12-14T08:58:51.161Z,-5.45
2022-12-14T09:01:29.996Z,-5.47
2022-12-14T09:04:05.949Z,-5.40
2022-12-14T09:06:37.479Z,-5.30
2022-12-14T09:09:13.601Z,-5.25
2022-12-14T09:11:42.545Z,-5.43
2022-12-14T09:14:08.942Z,-5.40
2022-12-14T09:16:41.406Z,-5.42
2022-12-14T09:19:07.837Z,-5.35
2022-12-14T09:21:34.741Z,-5.44
2022-12-14T09:24:01.606Z,-5.36
2022-12-14T09:26:28.159Z,-5.26
2022-12-14T09:28:56.512Z,-5.25
2022-12-14T09:31:24.734Z,-5.23
2022-12-14T09:33:51.603Z,-5.19
2022-12-14T09:36:23.957Z,-5.14
2022-12-14T09:38:52.422Z,-5.13
2022-12-14T09:41:36.996Z,-5.08
2022-12-14T09:44:31.241Z,-5.12
2022-12-14T09:47:21.002Z,-5.07
2022-12-14T09:49:53.099Z,-4.97
2022-12-14T09:52:48.831Z,-4.90
2022-12-14T09:55:31.851Z,-4.80
2022-12-14T09:58:03.517Z,-4.71
2022-12-14T10:00:37.593Z,-4.67
2022-12-14T10:03:19.264Z,-4.61
2022-12-14T10:06:19.092Z,-4.64
2022-12-14T10:08:54.936Z,-4.52
2022-12-14T10:11:40.504Z,-4.46
2022-12-14T10:14:29.859Z,-4.41
2022-12-14T10:17:09.458Z,-4.30
2022-12-14T10:19:51.462Z,-4.31
2022-12-14T10:22:38.419Z,-4.26
2022-12-14T10:25:13.962Z,-4.16
2022-12-14T10:30:37.883Z,-3.93
2022-12-14T10:33:16.841Z,-4.02
2022-12-14T10:35:50.932Z,-3.85
2022-12-14T10:38:26.351Z,-3.79
2022-12-14T10:41:31.430Z,-3.75
2022-12-14T10:44:23.182Z,-3.69
2022-12-14T10:47:11.760Z,-3.72
2022-12-14T10:50:03.027Z,-3.56
2022-12-14T10:52:36.998Z,-3.54
2022-12-14T10:55:12.177Z,-3.58
2022-12-14T10:57:38.623Z,-3.59
2022-12-14T11:00:31.310Z,-3.62
2022-12-14T11:02:58.221Z,-3.60
2022-12-14T11:05:51.036Z,-3.66
2022-12-14T11:08:41.032Z,-3.58
2022-12-14T11:11:24.743Z,-3.51
2022-12-14T11:13:54.378Z,-3.47
2022-12-14T11:16:37.131Z,-3.34
2022-12-14T11:19:06.011Z,-3.33
2022-12-14T11:21:35.823Z,-3.22
2022-12-14T11:24:22.245Z,-3.18
2022-12-14T11:26:58.977Z,-3.05
2022-12-14T11:29:34.688Z,-3.01
2022-12-14T11:32:01.700Z,-2.96
2022-12-14T11:34:37.674Z,-2.82
2022-12-14T11:37:12.947Z,-2.72
2022-12-14T11:39:42.404Z,-2.72
2022-12-14T11:42:17.405Z,-2.76
2022-12-14T11:44:45.945Z,-2.65
2022-12-14T11:47:30.793Z,-2.73
2022-12-14T11:49:57.841Z,-2.70
2022-12-14T11:52:42.513Z,-2.76
2022-12-14T11:55:26.486Z,-2.68
2022-12-14T11:57:59.342Z,-2.70
2022-12-14T12:00:30.771Z,-2.71
2022-12-14T12:03:01.828Z,-2.57
2022-12-14T12:05:32.625Z,-2.60
2022-12-14T12:08:02.105Z,-2.53
2022-12-14T12:10:49.678Z,-2.45
2022-12-14T12:13:35.171Z,-2.48
2022-12-14T12:16:05.898Z,-2.48
2022-12-14T12:18:45.813Z,-2.52
2022-12-14T12:21:18.482Z,-2.53
2022-12-14T12:23:58.620Z,-2.48
2022-12-14T12:26:32.332Z,-2.47
2022-12-14T12:29:36.458Z,-2.46
2022-12-14T12:32:23.966Z,-2.40
2022-12-14T12:35:11.279Z,-2.47
2022-12-14T12:37:56.990Z,-2.44
2022-12-14T12:40:32.012Z,-2.51
2022-12-14T12:43:12.830Z,-2.45
2022-12-14T12:45:46.532Z,-2.53
2022-12-14T12:48:28.186Z,-2.50
2022-12-14T12:51:00.820Z,-2.52
2022-12-14T12:53:33.481Z,-2.52
2022-12-14T12:56:14.630Z,-2.49
2022-12-14T12:58:46.351Z,-2.40
2022-12-14T13:01:24.190Z,-2.41
2022-12-14T13:03:55.277Z,-2.50
2022-12-14T13:06:35.852Z,-2.40
2022-12-14T13:09:17.395Z,-2.31
2022-12-14T13:11:45.694Z,-2.45
2022-12-14T13:14:39.813Z,-2.45
2022-12-14T13:17:14.897Z,-2.53
2022-12-14T13:19:50.568Z,-2.46
2022-12-14T13:22:24.862Z,-2.38
2022-12-14T13:24:58.851Z,-2.36
2022-12-14T13:27:42.042Z,-2.40
2022-12-14T13:30:43.075Z,-2.49
2022-12-14T13:33:33.298Z,-2.44
2022-12-14T13:36:28.059Z,-2.42
2022-12-14T13:39:18.253Z,-2.48
2022-12-14T13:41:56.351Z,-2.63
2022-12-14T13:45:01.295Z,-2.58
2022-12-14T13:48:03.586Z,-2.60
2022-12-14T13:50:36.603Z,-2.61
2022-12-14T13:53:27.631Z,-2.70
2022-12-14T13:56:00.007Z,-2.86
2022-12-14T13:58:44.474Z,-2.88
2022-12-14T14:01:35.123Z,-2.84
2022-12-14T14:04:10.411Z,-2.98
2022-12-14T14:06:50.549Z,-2.86
2022-12-14T14:09:26.325Z,-2.85
2022-12-14T14:11:57.143Z,-2.90
2022-12-14T14:14:33.466Z,-3.07
2022-12-14T14:17:08.568Z,-2.98
2022-12-14T14:19:39.508Z,-2.91
2022-12-14T14:22:25.832Z,-3.02
2022-12-14T14:25:00.920Z,-3.06
2022-12-14T14:27:37.126Z,-3.18
2022-12-14T14:30:26.387Z,-3.34
2022-12-14T14:32:54.175Z,-3.44
2022-12-14T14:35:37.733Z,-3.47
2022-12-14T14:38:23.330Z,-3.42
2022-12-14T14:43:49.624Z,-3.42
2022-12-14T14:46:22.273Z,-3.44
2022-12-14T14:48:54.537Z,-3.47
2022-12-14T14:51:28.951Z,-3.51
2022-12-14T14:54:56.096Z,-3.48
2022-12-14T14:57:35.055Z,-3.68
2022-12-14T15:00:05.006Z,-3.62
2022-12-14T15:02:39.202Z,-3.57
2022-12-14T15:05:33.200Z,-3.52
2022-12-14T15:07:55.094Z,-3.57
2022-12-14T15:10:29.741Z,-3.63
2022-12-14T15:13:03.196Z,-3.56
2022-12-14T15:15:37.211Z,-3.55
2022-12-14T15:18:30.460Z,-3.28
2022-12-14T15:21:07.838Z,-3.12
2022-12-14T15:23:45.337Z,-3.13
2022-12-14T15:26:26.413Z,-3.32
2022-12-14T15:28:58.168Z,-3.52
2022-12-14T15:31:33.775Z,-3.42
2022-12-14T15:34:01.831Z,-3.29
2022-12-14T15:36:32.124Z,-3.22
2022-12-14T15:38:58.899Z,-3.27
2022-12-14T15:41:28.780Z,-3.32
2022-12-14T15:44:00.321Z,-3.24
2022-12-14T15:46:40.229Z,-3.28
2022-12-14T15:49:10.614Z,-3.40
2022-12-14T15:51:43.372Z,-3.46
2022-12-14T15:54:20.718Z,-3.49
2022-12-14T15:56:51.025Z,-3.53
2022-12-14T15:59:32.430Z,-3.59
2022-12-14T16:02:29.065Z,-3.64
2022-12-14T16:05:01.375Z,-3.65
2022-12-14T16:07:39.206Z,-3.64
2022-12-14T16:10:22.717Z,-3.73
2022-12-14T16:12:52.493Z,-3.77
2022-12-14T16:15:22.307Z,-3.81
2022-12-14T16:17:53.653Z,-3.83
2022-12-14T16:20:30.261Z,-4.00
2022-12-14T16:23:01.439Z,-4.18
2022-12-14T16:25:30.107Z,-4.12
2022-12-14T16:27:56.832Z,-4.15
2022-12-14T16:30:33.319Z,-4.11
2022-12-14T16:33:05.948Z,-4.08
2022-12-14T16:35:35.262Z,-4.04
2022-12-14T16:38:16.218Z,-4.05
2022-12-14T16:40:48.536Z,-4.03
2022-12-14T16:43:30.782Z,-4.05
2022-12-14T16:46:00.430Z,-4.05
2022-12-14T16:48:28.739Z,-3.92
2022-12-14T16:51:32.976Z,-3.89
2022-12-14T16:54:23.959Z,-3.93
2022-12-14T16:56:58.176Z,-4.02
2022-12-14T16:59:55.078Z,-4.07
2022-12-14T17:02:30.448Z,-4.21
2022-12-14T17:04:59.935Z,-4.10
2022-12-14T17:07:29.617Z,-4.07
2022-12-14T17:09:56.515Z,-4.15
2022-12-14T17:12:24.933Z,-4.20
2022-12-14T17:14:52.222Z,-4.10
2022-12-14T17:17:26.790Z,-4.20
2022-12-14T17:19:55.906Z,-4.13
2022-12-14T17:22:26.364Z,-4.27
2022-12-14T17:24:53.032Z,-4.39
2022-12-14T17:27:26.656Z,-4.44
2022-12-14T17:29:57.240Z,-4.79
2022-12-14T17:32:27.679Z,-4.96
2022-12-14T17:34:54.101Z,-5.12
2022-12-14T17:37:23.757Z,-5.13
2022-12-14T17:39:50.867Z,-5.05
2022-12-14T17:42:20.434Z,-4.74
2022-12-14T17:45:05.036Z,-4.47
2022-12-14T17:47:31.535Z,-4.46
2022-12-14T17:49:57.992Z,-4.44
2022-12-14T17:52:28.930Z,-4.40
2022-12-14T17:54:55.248Z,-4.39
2022-12-14T17:57:23.565Z,-4.40
2022-12-14T18:00:10.270Z,-4.37
2022-12-14T18:02:37.732Z,-4.46
2022-12-14T18:05:04.577Z,-4.54
2022-12-14T18:07:30.966Z,-4.55
2022-12-14T18:09:57.646Z,-4.59
2022-12-14T18:12:25.761Z,-4.65
2022-12-14T18:14:52.410Z,-4.55
2022-12-14T18:17:18.942Z,-4.64
2022-12-14T18:19:45.354Z,-4.71
2022-12-14T18:22:14.389Z,-4.64
2022-12-14T18:24:40.857Z,-4.75
2022-12-14T18:27:07.377Z,-4.82
2022-12-14T18:29:33.810Z,-4.82
2022-12-14T18:32:00.310Z,-4.93
2022-12-14T18:34:26.806Z,-4.90
2022-12-14T18:36:53.206Z,-4.95
2022-12-14T18:39:19.814Z,-5.10
2022-12-14T18:41:46.200Z,-5.18
2022-12-14T18:44:12.607Z,-5.24
2022-12-14T18:46:39.541Z,-5.13
2022-12-14T18:49:06.691Z,-5.36
2022-12-14T18:51:36.180Z,-5.61
2022-12-14T18:54:03.269Z,-5.71
2022-12-14T18:56:29.708Z,-5.72
2022-12-14T18:58:56.290Z,-5.71
2022-12-14T19:01:24.677Z,-5.64
2022-12-14T19:03:51.734Z,-5.62
2022-12-14T19:09:09.965Z,-5.51
2022-12-14T19:11:41.971Z,-5.56
2022-12-14T19:14:08.872Z,-5.55
2022-12-14T19:16:35.366Z,-5.57
2022-12-14T19:19:01.858Z,-5.62
2022-12-14T19:21:31.801Z,-5.67
2022-12-14T19:23:59.743Z,-5.68
2022-12-14T19:26:28.086Z,-5.53
2022-12-14T19:28:54.478Z,-5.65
2022-12-14T19:31:20.942Z,-5.68
2022-12-14T19:33:47.402Z,-5.65
2022-12-14T19:36:13.795Z,-5.65
2022-12-14T19:38:40.227Z,-5.68
2022-12-14T19:41:10.722Z,-5.70
2022-12-14T19:43:37.416Z,-5.82
2022-12-14T19:46:08.905Z,-5.91
2022-12-14T19:48:35.387Z,-6.00
2022-12-14T19:51:10.641Z,-6.07
2022-12-14T19:53:37.761Z,-6.10
2022-12-14T19:56:04.616Z,-6.05
2022-12-14T19:58:31.022Z,-5.89
2022-12-14T20:00:58.370Z,-6.01
2022-12-14T20:03:24.907Z,-5.96
2022-12-14T20:05:55.813Z,-6.10
2022-12-14T20:08:23.427Z,-6.14
2022-12-14T20:10:52.632Z,-6.17
2022-12-14T20:13:19.792Z,-6.25
2022-12-14T20:15:50.715Z,-6.23
2022-12-14T20:18:17.293Z,-6.29
2022-12-14T20:20:43.936Z,-6.22
2022-12-14T20:23:17.262Z,-6.28
2022-12-14T20:25:43.682Z,-6.33
2022-12-14T20:28:14.315Z,-6.25
2022-12-14T20:30:45.480Z,-6.30
2022-12-14T20:33:12.646Z,-6.36
2022-12-14T20:35:39.139Z,-6.33
2022-12-14T20:38:05.533Z,-6.28
2022-12-14T20:40:38.007Z,-6.35
2022-12-14T20:43:05.151Z,-6.37
2022-12-14T20:45:31.557Z,-6.40
2022-12-14T20:47:57.946Z,-6.40
2022-12-14T20:50:24.354Z,-6.48
2022-12-14T20:52:50.734Z,-6.52
2022-12-14T20:55:17.263Z,-6.51
2022-12-14T20:57:43.658Z,-6.54
2022-12-14T21:00:10.535Z,-6.58
2022-12-14T21:02:37.085Z,-6.71
2022-12-14T21:05:03.985Z,-6.67
2022-12-14T21:07:31.704Z,-6.66
2022-12-14T21:09:58.449Z,-6.59
2022-12-14T21:12:25.709Z,-6.64
2022-12-14T21:14:54.260Z,-6.72
2022-12-14T21:17:23.213Z,-6.78
2022-12-14T21:19:50.354Z,-6.68
2022-12-14T21:22:26.025Z,-6.80
2022-12-14T21:25:08.288Z,-6.93
2022-12-14T21:27:38.240Z,-7.00
2022-12-14T21:30:07.202Z,-6.84
2022-12-14T21:32:35.547Z,-6.80
2022-12-14T21:35:01.996Z,-6.81
2022-12-14T21:37:28.378Z,-6.90
2022-12-14T21:39:55.741Z,-6.97
2022-12-14T21:42:23.633Z,-6.91
2022-12-14T21:44:51.939Z,-7.00
2022-12-14T21:47:24.670Z,-7.09
2022-12-14T21:49:51.299Z,-7.12
2022-12-14T21:52:20.393Z,-7.03
2022-12-14T21:54:46.779Z,-7.09
2022-12-14T21:57:37.265Z,-7.12
2022-12-14T22:00:05.500Z,-7.25
2022-12-14T22:02:39.608Z,-7.26
2022-12-14T22:05:06.631Z,-7.25
2022-12-14T22:07:34.202Z,-7.27
2022-12-14T22:10:00.692Z,-7.26
2022-12-14T22:12:27.328Z,-7.27
2022-12-14T22:14:53.739Z,-7.21
2022-12-14T22:17:20.154Z,-7.29
2022-12-14T22:19:46.617Z,-7.32
2022-12-14T22:22:15.290Z,-7.36
2022-12-14T22:24:41.951Z,-7.37
2022-12-14T22:27:10.003Z,-7.35
2022-12-14T22:29:36.397Z,-7.40
2022-12-14T22:32:02.917Z,-7.40
2022-12-14T22:34:29.411Z,-7.33
2022-12-14T22:36:56.013Z,-7.34
2022-12-14T22:39:22.636Z,-7.30
2022-12-14T22:41:49.488Z,-7.39
2022-12-14T22:44:15.883Z,-7.52
2022-12-14T22:46:42.344Z,-7.67
2022-12-14T22:49:14.265Z,-7.62
2022-12-14T22:51:41.094Z,-7.50
2022-12-14T22:54:07.489Z,-7.57
2022-12-14T22:56:48.131Z,-7.52
2022-12-14T22:59:23.338Z,-7.56
2022-12-14T23:01:50.550Z,-7.72
2022-12-14T23:04:17.461Z,-7.84
2022-12-14T23:06:44.867Z,-7.86
2022-12-14T23:09:30.603Z,-7.81
2022-12-14T23:12:21.262Z,-7.80
2022-12-14T23:15:06.770Z,-7.75
2022-12-14T23:17:51.592Z,-7.79
2022-12-14T23:20:36.862Z,-7.78
2022-12-14T23:23:26.069Z,-7.84
2022-12-14T23:26:12.016Z,-7.93
2022-12-14T23:28:57.591Z,-7.84
2022-12-14T23:31:42.970Z,-7.81
2022-12-14T23:34:28.460Z,-7.91
2022-12-14T23:37:18.216Z,-7.90
2022-12-14T23:40:05.632Z,-7.93
2022-12-14T23:42:50.566Z,-7.99
2022-12-14T23:45:35.568Z,-7.97
2022-12-14T23:48:20.761Z,-8.08
2022-12-14T23:51:06.062Z,-8.11
2022-12-14T23:53:51.211Z,-8.12
2022-12-14T23:56:36.291Z,-8.10
2022-12-14T23:59:24.864Z,-8.09
